sensor_id;sensor_type;location;lat;lon;timestamp;temperature;humidity
16267;DHT22;8241;48.786;9.250;2023-03-07T00:00:07;4.20;98.20
16267;DHT22;8241;48.786;9.250;2023-03-07T00:02:34;4.10;98.30
16267;DHT22;8241;48.786;9.250;2023-03-07T00:05:01;4.00;98.60
16267;DHT22;8241;48.786;9.250;2023-03-07T00:07:29;4.00;98.50
16267;DHT22;8241;48.786;9.250;2023-03-07T00:09:56;4.10;98.50
16267;DHT22;8241;48.786;9.250;2023-03-07T00:12:23;4.10;98.50
16267;DHT22;8241;48.786;9.250;2023-03-07T00:14:50;4.20;98.30
16267;DHT22;8241;48.786;9.250;2023-03-07T00:17:19;4.20;98.30
16267;DHT22;8241;48.786;9.250;2023-03-07T00:19:46;4.20;98.40
16267;DHT22;8241;48.786;9.250;2023-03-07T00:22:14;4.00;98.50
16267;DHT22;8241;48.786;9.250;2023-03-07T00:24:41;4.00;98.60
16267;DHT22;8241;48.786;9.250;2023-03-07T00:27:09;4.10;98.50
16267;DHT22;8241;48.786;9.250;2023-03-07T00:29:36;4.20;98.20
16267;DHT22;8241;48.786;9.250;2023-03-07T00:32:03;4.10;98.10
16267;DHT22;8241;48.786;9.250;2023-03-07T00:34:32;4.10;98.30
16267;DHT22;8241;48.786;9.250;2023-03-07T00:37:00;4.30;98.30
16267;DHT22;8241;48.786;9.250;2023-03-07T00:39:27;4.30;98.00
16267;DHT22;8241;48.786;9.250;2023-03-07T00:41:54;4.30;98.00
16267;DHT22;8241;48.786;9.250;2023-03-07T00:44:21;4.30;97.90
16267;DHT22;8241;48.786;9.250;2023-03-07T00:46:50;4.30;98.10
16267;DHT22;8241;48.786;9.250;2023-03-07T00:49:17;4.20;98.00
16267;DHT22;8241;48.786;9.250;2023-03-07T00:51:46;4.10;98.10
16267;DHT22;8241;48.786;9.250;2023-03-07T00:54:13;4.30;98.00
16267;DHT22;8241;48.786;9.250;2023-03-07T00:56:41;4.20;98.00
16267;DHT22;8241;48.786;9.250;2023-03-07T00:59:08;4.30;97.90
16267;DHT22;8241;48.786;9.250;2023-03-07T01:01:36;4.30;97.90
16267;DHT22;8241;48.786;9.250;2023-03-07T01:04:03;4.30;97.80
16267;DHT22;8241;48.786;9.250;2023-03-07T01:06:32;4.20;97.70
16267;DHT22;8241;48.786;9.250;2023-03-07T01:09:04;4.30;97.70
16267;DHT22;8241;48.786;9.250;2023-03-07T01:11:33;4.30;97.60
16267;DHT22;8241;48.786;9.250;2023-03-07T01:14:02;4.30;97.50
16267;DHT22;8241;48.786;9.250;2023-03-07T01:16:32;4.20;97.70
16267;DHT22;8241;48.786;9.250;2023-03-07T01:19:02;4.20;97.60
16267;DHT22;8241;48.786;9.250;2023-03-07T01:21:30;4.30;97.40
16267;DHT22;8241;48.786;9.250;2023-03-07T01:24:02;4.20;97.40
16267;DHT22;8241;48.786;9.250;2023-03-07T01:26:31;4.20;97.40
16267;DHT22;8241;48.786;9.250;2023-03-07T01:29:00;4.10;97.50
16267;DHT22;8241;48.786;9.250;2023-03-07T01:31:30;4.10;97.70
16267;DHT22;8241;48.786;9.250;2023-03-07T01:33:59;4.10;97.80
16267;DHT22;8241;48.786;9.250;2023-03-07T01:36:31;4.10;97.70
16267;DHT22;8241;48.786;9.250;2023-03-07T01:39:05;4.00;97.50
16267;DHT22;8241;48.786;9.250;2023-03-07T01:41:38;4.00;97.50
16267;DHT22;8241;48.786;9.250;2023-03-07T01:44:13;4.10;97.40
16267;DHT22;8241;48.786;9.250;2023-03-07T01:46:46;4.20;97.00
16267;DHT22;8241;48.786;9.250;2023-03-07T01:49:19;4.20;96.90
16267;DHT22;8241;48.786;9.250;2023-03-07T01:51:57;4.10;97.00
16267;DHT22;8241;48.786;9.250;2023-03-07T01:54:29;4.20;97.00
16267;DHT22;8241;48.786;9.250;2023-03-07T01:56:56;4.20;96.60
16267;DHT22;8241;48.786;9.250;2023-03-07T01:59:26;4.20;96.50
16267;DHT22;8241;48.786;9.250;2023-03-07T02:01:55;4.10;96.40
16267;DHT22;8241;48.786;9.250;2023-03-07T02:04:26;4.20;96.60
16267;DHT22;8241;48.786;9.250;2023-03-07T02:06:55;4.30;96.50
16267;DHT22;8241;48.786;9.250;2023-03-07T02:09:22;4.20;96.40
16267;DHT22;8241;48.786;9.250;2023-03-07T03:33:25;3.90;96.60
16267;DHT22;8241;48.786;9.250;2023-03-07T03:35:52;4.10;96.50
16267;DHT22;8241;48.786;9.250;2023-03-07T03:38:19;4.10;96.60
16267;DHT22;8241;48.786;9.250;2023-03-07T03:40:46;4.20;96.50
16267;DHT22;8241;48.786;9.250;2023-03-07T03:43:15;4.30;96.40
16267;DHT22;8241;48.786;9.250;2023-03-07T03:45:42;4.40;96.10
16267;DHT22;8241;48.786;9.250;2023-03-07T03:48:09;4.40;96.30
16267;DHT22;8241;48.786;9.250;2023-03-07T03:50:37;4.30;96.30
16267;DHT22;8241;48.786;9.250;2023-03-07T03:53:04;4.20;96.50
16267;DHT22;8241;48.786;9.250;2023-03-07T03:55:31;4.30;96.40
16267;DHT22;8241;48.786;9.250;2023-03-07T03:57:58;4.40;96.40
16267;DHT22;8241;48.786;9.250;2023-03-07T04:00:25;4.40;96.30
16267;DHT22;8241;48.786;9.250;2023-03-07T04:02:52;4.30;96.30
16267;DHT22;8241;48.786;9.250;2023-03-07T04:05:20;4.30;96.40
16267;DHT22;8241;48.786;9.250;2023-03-07T04:07:48;4.30;96.40
16267;DHT22;8241;48.786;9.250;2023-03-07T04:10:15;4.10;96.40
16267;DHT22;8241;48.786;9.250;2023-03-07T04:12:44;4.10;96.50
16267;DHT22;8241;48.786;9.250;2023-03-07T04:15:11;4.10;96.70
16267;DHT22;8241;48.786;9.250;2023-03-07T04:17:38;4.10;96.70
16267;DHT22;8241;48.786;9.250;2023-03-07T04:20:08;4.10;96.70
16267;DHT22;8241;48.786;9.250;2023-03-07T04:22:42;4.10;96.60
16267;DHT22;8241;48.786;9.250;2023-03-07T04:25:11;4.10;96.70
16267;DHT22;8241;48.786;9.250;2023-03-07T04:27:38;4.10;96.90
16267;DHT22;8241;48.786;9.250;2023-03-07T04:30:07;4.00;96.80
16267;DHT22;8241;48.786;9.250;2023-03-07T04:32:34;3.90;96.90
16267;DHT22;8241;48.786;9.250;2023-03-07T04:35:01;4.00;96.80
16267;DHT22;8241;48.786;9.250;2023-03-07T04:37:28;4.10;96.70
16267;DHT22;8241;48.786;9.250;2023-03-07T04:39:54;4.10;96.70
16267;DHT22;8241;48.786;9.250;2023-03-07T04:42:23;4.00;96.90
16267;DHT22;8241;48.786;9.250;2023-03-07T04:44:51;4.20;96.70
16267;DHT22;8241;48.786;9.250;2023-03-07T04:47:18;4.10;96.60
16267;DHT22;8241;48.786;9.250;2023-03-07T04:49:45;4.20;96.70
16267;DHT22;8241;48.786;9.250;2023-03-07T04:52:12;4.10;96.70
16267;DHT22;8241;48.786;9.250;2023-03-07T04:54:39;4.10;96.90
16267;DHT22;8241;48.786;9.250;2023-03-07T04:57:06;4.20;96.70
16267;DHT22;8241;48.786;9.250;2023-03-07T04:59:36;4.10;96.60
16267;DHT22;8241;48.786;9.250;2023-03-07T05:02:04;4.10;96.50
16267;DHT22;8241;48.786;9.250;2023-03-07T05:04:31;3.90;96.70
16267;DHT22;8241;48.786;9.250;2023-03-07T05:06:59;3.90;96.60
16267;DHT22;8241;48.786;9.250;2023-03-07T05:09:26;3.90;96.90
16267;DHT22;8241;48.786;9.250;2023-03-07T05:11:53;3.90;96.90
16267;DHT22;8241;48.786;9.250;2023-03-07T05:14:20;3.90;96.80
16267;DHT22;8241;48.786;9.250;2023-03-07T05:16:48;4.00;96.80
16267;DHT22;8241;48.786;9.250;2023-03-07T05:19:15;4.00;96.70
16267;DHT22;8241;48.786;9.250;2023-03-07T05:21:43;4.00;96.60
16267;DHT22;8241;48.786;9.250;2023-03-07T05:24:12;4.00;96.60
16267;DHT22;8241;48.786;9.250;2023-03-07T05:26:43;4.00;96.60
16267;DHT22;8241;48.786;9.250;2023-03-07T05:29:10;4.00;96.50
16267;DHT22;8241;48.786;9.250;2023-03-07T05:31:36;4.00;96.40
16267;DHT22;8241;48.786;9.250;2023-03-07T05:34:07;3.90;96.40
16267;DHT22;8241;48.786;9.250;2023-03-07T05:36:35;3.90;96.50
16267;DHT22;8241;48.786;9.250;2023-03-07T05:39:03;3.90;96.30
16267;DHT22;8241;48.786;9.250;2023-03-07T05:41:30;3.90;96.40
16267;DHT22;8241;48.786;9.250;2023-03-07T05:43:57;3.90;96.40
16267;DHT22;8241;48.786;9.250;2023-03-07T05:46:26;4.00;96.20
16267;DHT22;8241;48.786;9.250;2023-03-07T05:48:54;4.10;96.00
16267;DHT22;8241;48.786;9.250;2023-03-07T05:51:22;4.00;95.90
16267;DHT22;8241;48.786;9.250;2023-03-07T05:53:49;4.00;96.10
16267;DHT22;8241;48.786;9.250;2023-03-07T05:56:16;4.00;96.10
16267;DHT22;8241;48.786;9.250;2023-03-07T05:58:43;4.00;96.00
16267;DHT22;8241;48.786;9.250;2023-03-07T06:01:10;4.00;96.00
16267;DHT22;8241;48.786;9.250;2023-03-07T06:03:39;4.00;95.90
16267;DHT22;8241;48.786;9.250;2023-03-07T06:06:07;4.10;95.90
16267;DHT22;8241;48.786;9.250;2023-03-07T06:08:35;4.00;95.80
16267;DHT22;8241;48.786;9.250;2023-03-07T06:11:04;4.00;95.70
16267;DHT22;8241;48.786;9.250;2023-03-07T06:13:35;4.10;95.70
16267;DHT22;8241;48.786;9.250;2023-03-07T06:16:05;4.00;95.50
16267;DHT22;8241;48.786;9.250;2023-03-07T06:18:32;4.10;95.60
16267;DHT22;8241;48.786;9.250;2023-03-07T06:21:06;4.20;95.40
16267;DHT22;8241;48.786;9.250;2023-03-07T06:23:40;4.20;95.30
16267;DHT22;8241;48.786;9.250;2023-03-07T06:26:13;4.20;95.20
16267;DHT22;8241;48.786;9.250;2023-03-07T06:28:45;4.30;95.10
16267;DHT22;8241;48.786;9.250;2023-03-07T06:31:16;4.20;95.10
16267;DHT22;8241;48.786;9.250;2023-03-07T06:33:44;4.20;95.20
16267;DHT22;8241;48.786;9.250;2023-03-07T06:36:14;4.30;95.10
16267;DHT22;8241;48.786;9.250;2023-03-07T06:38:46;4.40;95.10
16267;DHT22;8241;48.786;9.250;2023-03-07T06:41:13;4.40;95.10
16267;DHT22;8241;48.786;9.250;2023-03-07T06:43:40;4.30;95.10
16267;DHT22;8241;48.786;9.250;2023-03-07T06:46:08;4.30;95.10
16267;DHT22;8241;48.786;9.250;2023-03-07T06:48:39;4.40;94.90
16267;DHT22;8241;48.786;9.250;2023-03-07T06:51:10;4.40;95.00
16267;DHT22;8241;48.786;9.250;2023-03-07T06:53:40;4.30;94.80
16267;DHT22;8241;48.786;9.250;2023-03-07T06:56:10;4.30;95.00
16267;DHT22;8241;48.786;9.250;2023-03-07T06:58:38;4.30;94.90
16267;DHT22;8241;48.786;9.250;2023-03-07T07:01:13;4.40;94.90
16267;DHT22;8241;48.786;9.250;2023-03-07T07:03:40;4.50;94.70
16267;DHT22;8241;48.786;9.250;2023-03-07T07:06:07;4.50;94.50
16267;DHT22;8241;48.786;9.250;2023-03-07T07:08:34;4.50;94.60
16267;DHT22;8241;48.786;9.250;2023-03-07T07:11:02;4.40;94.60
16267;DHT22;8241;48.786;9.250;2023-03-07T07:13:32;4.50;94.80
16267;DHT22;8241;48.786;9.250;2023-03-07T07:16:03;4.50;94.70
16267;DHT22;8241;48.786;9.250;2023-03-07T07:18:32;4.50;94.70
16267;DHT22;8241;48.786;9.250;2023-03-07T07:21:00;4.50;94.60
16267;DHT22;8241;48.786;9.250;2023-03-07T07:23:32;4.50;94.60
16267;DHT22;8241;48.786;9.250;2023-03-07T07:26:05;4.50;94.80
16267;DHT22;8241;48.786;9.250;2023-03-07T07:28:34;4.60;94.80
16267;DHT22;8241;48.786;9.250;2023-03-07T07:31:12;4.60;94.80
16267;DHT22;8241;48.786;9.250;2023-03-07T07:41:36;4.90;94.30
16267;DHT22;8241;48.786;9.250;2023-03-07T07:44:15;4.90;94.40
16267;DHT22;8241;48.786;9.250;2023-03-07T07:46:56;5.00;94.30
16267;DHT22;8241;48.786;9.250;2023-03-07T07:49:30;5.00;94.10
16267;DHT22;8241;48.786;9.250;2023-03-07T07:52:00;5.00;94.10
16267;DHT22;8241;48.786;9.250;2023-03-07T07:54:31;5.10;94.20
16267;DHT22;8241;48.786;9.250;2023-03-07T07:56:59;5.10;94.20
16267;DHT22;8241;48.786;9.250;2023-03-07T07:59:28;5.10;94.10
16267;DHT22;8241;48.786;9.250;2023-03-07T08:01:57;5.20;93.90
16267;DHT22;8241;48.786;9.250;2023-03-07T08:04:28;5.30;93.80
16267;DHT22;8241;48.786;9.250;2023-03-07T08:06:54;5.30;93.80
16267;DHT22;8241;48.786;9.250;2023-03-07T08:09:21;5.30;93.90
16267;DHT22;8241;48.786;9.250;2023-03-07T08:15:33;5.40;93.70
16267;DHT22;8241;48.786;9.250;2023-03-07T08:18:29;5.50;93.60
16267;DHT22;8241;48.786;9.250;2023-03-07T08:21:12;5.60;93.60
16267;DHT22;8241;48.786;9.250;2023-03-07T08:27:10;5.90;93.00
16267;DHT22;8241;48.786;9.250;2023-03-07T08:29:39;5.80;93.20
16267;DHT22;8241;48.786;9.250;2023-03-07T08:32:09;5.90;93.30
16267;DHT22;8241;48.786;9.250;2023-03-07T08:34:41;6.10;93.10
16267;DHT22;8241;48.786;9.250;2023-03-07T08:37:12;6.20;92.70
16267;DHT22;8241;48.786;9.250;2023-03-07T08:39:38;6.10;92.70
16267;DHT22;8241;48.786;9.250;2023-03-07T08:42:06;6.20;92.80
16267;DHT22;8241;48.786;9.250;2023-03-07T08:44:33;6.30;92.90
16267;DHT22;8241;48.786;9.250;2023-03-07T08:46:59;6.30;92.90
16267;DHT22;8241;48.786;9.250;2023-03-07T08:49:28;6.40;92.70
16267;DHT22;8241;48.786;9.250;2023-03-07T08:51:55;6.50;92.60
16267;DHT22;8241;48.786;9.250;2023-03-07T08:54:22;6.60;92.00
16267;DHT22;8241;48.786;9.250;2023-03-07T08:56:48;6.70;92.30
16267;DHT22;8241;48.786;9.250;2023-03-07T08:59:16;6.80;92.00
16267;DHT22;8241;48.786;9.250;2023-03-07T09:01:44;6.80;91.80
16267;DHT22;8241;48.786;9.250;2023-03-07T09:04:11;6.90;91.60
16267;DHT22;8241;48.786;9.250;2023-03-07T09:06:39;6.70;91.20
16267;DHT22;8241;48.786;9.250;2023-03-07T09:09:09;6.60;91.40
16267;DHT22;8241;48.786;9.250;2023-03-07T09:11:40;6.70;91.30
16267;DHT22;8241;48.786;9.250;2023-03-07T09:14:07;6.80;91.50
16267;DHT22;8241;48.786;9.250;2023-03-07T09:16:34;6.90;91.20
16267;DHT22;8241;48.786;9.250;2023-03-07T09:19:03;7.00;90.90
16267;DHT22;8241;48.786;9.250;2023-03-07T09:21:31;7.00;91.00
16267;DHT22;8241;48.786;9.250;2023-03-07T09:24:04;7.10;90.70
16267;DHT22;8241;48.786;9.250;2023-03-07T09:26:35;7.10;90.60
16267;DHT22;8241;48.786;9.250;2023-03-07T09:29:02;7.10;90.30
16267;DHT22;8241;48.786;9.250;2023-03-07T09:31:28;7.20;89.40
16267;DHT22;8241;48.786;9.250;2023-03-07T09:34:05;7.20;89.20
16267;DHT22;8241;48.786;9.250;2023-03-07T09:43:38;7.80;87.00
16267;DHT22;8241;48.786;9.250;2023-03-07T09:50:48;7.20;86.40
16267;DHT22;8241;48.786;9.250;2023-03-07T09:53:45;7.00;89.00
16267;DHT22;8241;48.786;9.250;2023-03-07T10:00:03;6.80;89.00
16267;DHT22;8241;48.786;9.250;2023-03-07T10:03:29;6.60;88.90
16267;DHT22;8241;48.786;9.250;2023-03-07T10:09:54;6.50;88.80
16267;DHT22;8241;48.786;9.250;2023-03-07T10:12:48;6.40;88.50
16267;DHT22;8241;48.786;9.250;2023-03-07T10:15:46;6.20;88.90
16267;DHT22;8241;48.786;9.250;2023-03-07T10:21:32;6.20;88.50
16267;DHT22;8241;48.786;9.250;2023-03-07T10:24:26;6.20;89.40
16267;DHT22;8241;48.786;9.250;2023-03-07T10:27:16;6.20;89.20
16267;DHT22;8241;48.786;9.250;2023-03-07T10:30:07;6.10;89.90
16267;DHT22;8241;48.786;9.250;2023-03-07T10:39:14;6.20;90.10
16267;DHT22;8241;48.786;9.250;2023-03-07T10:42:00;6.20;88.70
16267;DHT22;8241;48.786;9.250;2023-03-07T10:44:35;6.20;88.40
16267;DHT22;8241;48.786;9.250;2023-03-07T10:47:14;6.20;88.80
16267;DHT22;8241;48.786;9.250;2023-03-07T10:49:44;6.20;88.70
16267;DHT22;8241;48.786;9.250;2023-03-07T10:52:16;6.30;89.70
16267;DHT22;8241;48.786;9.250;2023-03-07T10:54:49;6.20;90.30
16267;DHT22;8241;48.786;9.250;2023-03-07T10:57:25;5.90;90.40
16267;DHT22;8241;48.786;9.250;2023-03-07T10:59:57;5.90;89.10
16267;DHT22;8241;48.786;9.250;2023-03-07T11:02:40;6.00;89.20
16267;DHT22;8241;48.786;9.250;2023-03-07T11:05:18;6.00;90.10
16267;DHT22;8241;48.786;9.250;2023-03-07T11:07:45;6.20;89.80
16267;DHT22;8241;48.786;9.250;2023-03-07T11:10:26;6.20;88.80
16267;DHT22;8241;48.786;9.250;2023-03-07T11:12:56;6.20;88.10
16267;DHT22;8241;48.786;9.250;2023-03-07T11:15:26;6.20;88.40
16267;DHT22;8241;48.786;9.250;2023-03-07T11:17:53;6.20;88.00
16267;DHT22;8241;48.786;9.250;2023-03-07T11:20:20;6.20;87.90
16267;DHT22;8241;48.786;9.250;2023-03-07T11:22:48;6.10;88.30
16267;DHT22;8241;48.786;9.250;2023-03-07T11:25:15;6.20;87.80
16267;DHT22;8241;48.786;9.250;2023-03-07T11:27:49;6.10;87.80
16267;DHT22;8241;48.786;9.250;2023-03-07T11:30:17;6.10;87.80
16267;DHT22;8241;48.786;9.250;2023-03-07T11:32:46;6.00;87.40
16267;DHT22;8241;48.786;9.250;2023-03-07T11:35:17;6.10;87.70
16267;DHT22;8241;48.786;9.250;2023-03-07T11:37:46;6.10;87.90
16267;DHT22;8241;48.786;9.250;2023-03-07T11:40:21;6.10;87.90
16267;DHT22;8241;48.786;9.250;2023-03-07T11:43:01;6.10;87.60
16267;DHT22;8241;48.786;9.250;2023-03-07T11:45:35;6.20;88.20
16267;DHT22;8241;48.786;9.250;2023-03-07T11:48:06;6.20;87.40
16267;DHT22;8241;48.786;9.250;2023-03-07T11:50:36;6.20;87.30
16267;DHT22;8241;48.786;9.250;2023-03-07T11:53:08;6.10;87.50
16267;DHT22;8241;48.786;9.250;2023-03-07T11:55:52;6.10;87.40
16267;DHT22;8241;48.786;9.250;2023-03-07T11:58:29;6.10;86.50
16267;DHT22;8241;48.786;9.250;2023-03-07T12:01:09;6.10;86.70
16267;DHT22;8241;48.786;9.250;2023-03-07T12:03:57;6.10;86.50
16267;DHT22;8241;48.786;9.250;2023-03-07T12:06:35;6.10;87.00
16267;DHT22;8241;48.786;9.250;2023-03-07T12:09:10;6.10;86.30
16267;DHT22;8241;48.786;9.250;2023-03-07T12:14:30;6.10;85.70
16267;DHT22;8241;48.786;9.250;2023-03-07T12:17:03;6.10;85.90
16267;DHT22;8241;48.786;9.250;2023-03-07T12:29:09;6.30;85.90
16267;DHT22;8241;48.786;9.250;2023-03-07T12:39:49;6.20;85.60
16267;DHT22;8241;48.786;9.250;2023-03-07T12:51:53;6.60;85.10
16267;DHT22;8241;48.786;9.250;2023-03-07T12:54:37;6.90;83.90
16267;DHT22;8241;48.786;9.250;2023-03-07T13:03:57;7.00;84.80
16267;DHT22;8241;48.786;9.250;2023-03-07T13:09:18;7.10;83.40
16267;DHT22;8241;48.786;9.250;2023-03-07T13:21:35;7.00;84.10
16267;DHT22;8241;48.786;9.250;2023-03-07T13:24:36;7.00;83.70
16267;DHT22;8241;48.786;9.250;2023-03-07T13:27:13;7.10;83.20
16267;DHT22;8241;48.786;9.250;2023-03-07T13:35:25;7.00;83.90
16267;DHT22;8241;48.786;9.250;2023-03-07T13:38:33;7.00;83.90
16267;DHT22;8241;48.786;9.250;2023-03-07T13:41:16;7.10;83.40
16267;DHT22;8241;48.786;9.250;2023-03-07T13:44:10;7.10;83.70
16267;DHT22;8241;48.786;9.250;2023-03-07T13:46:51;7.30;83.40
16267;DHT22;8241;48.786;9.250;2023-03-07T13:49:44;7.10;82.30
16267;DHT22;8241;48.786;9.250;2023-03-07T13:52:38;6.90;82.90
16267;DHT22;8241;48.786;9.250;2023-03-07T13:57:59;7.00;84.10
16267;DHT22;8241;48.786;9.250;2023-03-07T14:00:47;7.10;83.00
16267;DHT22;8241;48.786;9.250;2023-03-07T14:03:28;7.10;82.70
16267;DHT22;8241;48.786;9.250;2023-03-07T14:06:07;7.00;83.40
16267;DHT22;8241;48.786;9.250;2023-03-07T14:08:37;7.00;83.20
16267;DHT22;8241;48.786;9.250;2023-03-07T14:11:05;7.00;83.40
16267;DHT22;8241;48.786;9.250;2023-03-07T14:16:36;7.00;84.50
16267;DHT22;8241;48.786;9.250;2023-03-07T14:19:13;7.10;84.50
16267;DHT22;8241;48.786;9.250;2023-03-07T14:21:50;7.10;84.60
16267;DHT22;8241;48.786;9.250;2023-03-07T14:24:25;7.20;83.70
16267;DHT22;8241;48.786;9.250;2023-03-07T14:26:56;7.20;83.20
16267;DHT22;8241;48.786;9.250;2023-03-07T14:29:23;7.30;83.70
16267;DHT22;8241;48.786;9.250;2023-03-07T14:31:52;7.40;82.90
16267;DHT22;8241;48.786;9.250;2023-03-07T14:34:25;7.50;83.00
16267;DHT22;8241;48.786;9.250;2023-03-07T14:37:00;7.50;82.80
16267;DHT22;8241;48.786;9.250;2023-03-07T14:39:43;7.90;82.90
16267;DHT22;8241;48.786;9.250;2023-03-07T14:42:21;7.90;82.10
16267;DHT22;8241;48.786;9.250;2023-03-07T14:45:21;8.60;81.00
16267;DHT22;8241;48.786;9.250;2023-03-07T14:48:02;8.60;79.70
16267;DHT22;8241;48.786;9.250;2023-03-07T14:50:34;8.30;80.40
16267;DHT22;8241;48.786;9.250;2023-03-07T14:53:12;8.10;81.10
16267;DHT22;8241;48.786;9.250;2023-03-07T14:55:42;8.30;81.30
16267;DHT22;8241;48.786;9.250;2023-03-07T14:58:17;9.50;79.50
16267;DHT22;8241;48.786;9.250;2023-03-07T15:00:44;9.70;76.80
16267;DHT22;8241;48.786;9.250;2023-03-07T15:03:13;9.80;77.00
16267;DHT22;8241;48.786;9.250;2023-03-07T15:05:52;9.70;77.30
16267;DHT22;8241;48.786;9.250;2023-03-07T15:08:22;9.50;77.50
16267;DHT22;8241;48.786;9.250;2023-03-07T15:10:53;9.20;78.20
16267;DHT22;8241;48.786;9.250;2023-03-07T15:13:27;9.00;78.90
16267;DHT22;8241;48.786;9.250;2023-03-07T15:15:59;8.90;78.80
16267;DHT22;8241;48.786;9.250;2023-03-07T15:18:32;8.60;79.80
16267;DHT22;8241;48.786;9.250;2023-03-07T15:21:01;8.30;79.70
16267;DHT22;8241;48.786;9.250;2023-03-07T15:23:30;8.30;80.40
16267;DHT22;8241;48.786;9.250;2023-03-07T15:26:02;8.40;80.10
16267;DHT22;8241;48.786;9.250;2023-03-07T15:28:32;8.50;79.60
16267;DHT22;8241;48.786;9.250;2023-03-07T15:31:01;8.80;79.80
16267;DHT22;8241;48.786;9.250;2023-03-07T15:33:30;8.90;79.90
16267;DHT22;8241;48.786;9.250;2023-03-07T15:36:15;8.70;79.10
16267;DHT22;8241;48.786;9.250;2023-03-07T15:38:47;8.60;79.70
16267;DHT22;8241;48.786;9.250;2023-03-07T15:41:24;8.80;79.90
16267;DHT22;8241;48.786;9.250;2023-03-07T15:44:03;8.90;79.30
16267;DHT22;8241;48.786;9.250;2023-03-07T15:46:31;9.00;80.20
16267;DHT22;8241;48.786;9.250;2023-03-07T15:48:59;8.70;79.40
16267;DHT22;8241;48.786;9.250;2023-03-07T15:51:32;8.90;79.50
16267;DHT22;8241;48.786;9.250;2023-03-07T15:54:02;8.80;80.00
16267;DHT22;8241;48.786;9.250;2023-03-07T15:56:36;8.80;81.00
16267;DHT22;8241;48.786;9.250;2023-03-07T15:59:10;8.80;80.40
16267;DHT22;8241;48.786;9.250;2023-03-07T16:01:41;8.80;80.60
16267;DHT22;8241;48.786;9.250;2023-03-07T16:04:29;8.70;80.70
16267;DHT22;8241;48.786;9.250;2023-03-07T16:07:00;8.50;80.90
16267;DHT22;8241;48.786;9.250;2023-03-07T16:09:29;8.20;81.70
16267;DHT22;8241;48.786;9.250;2023-03-07T16:11:56;8.10;82.60
16267;DHT22;8241;48.786;9.250;2023-03-07T16:14:25;8.00;82.60
16267;DHT22;8241;48.786;9.250;2023-03-07T16:16:58;8.00;83.40
16267;DHT22;8241;48.786;9.250;2023-03-07T16:19:25;7.90;82.60
16267;DHT22;8241;48.786;9.250;2023-03-07T16:21:54;7.80;83.50
16267;DHT22;8241;48.786;9.250;2023-03-07T16:24:20;7.80;83.80
16267;DHT22;8241;48.786;9.250;2023-03-07T16:26:48;7.70;84.10
16267;DHT22;8241;48.786;9.250;2023-03-07T16:29:16;7.70;84.80
16267;DHT22;8241;48.786;9.250;2023-03-07T16:35:54;7.60;84.20
16267;DHT22;8241;48.786;9.250;2023-03-07T16:44:25;7.30;85.20
16267;DHT22;8241;48.786;9.250;2023-03-07T16:47:20;7.20;86.10
16267;DHT22;8241;48.786;9.250;2023-03-07T16:49:47;7.30;85.90
16267;DHT22;8241;48.786;9.250;2023-03-07T16:52:15;7.30;85.80
16267;DHT22;8241;48.786;9.250;2023-03-07T16:54:42;7.30;86.10
16267;DHT22;8241;48.786;9.250;2023-03-07T16:57:13;7.30;85.50
16267;DHT22;8241;48.786;9.250;2023-03-07T16:59:57;7.20;86.40
16267;DHT22;8241;48.786;9.250;2023-03-07T17:02:37;7.10;86.60
16267;DHT22;8241;48.786;9.250;2023-03-07T17:05:05;7.10;86.40
16267;DHT22;8241;48.786;9.250;2023-03-07T17:07:55;7.20;86.70
16267;DHT22;8241;48.786;9.250;2023-03-07T17:10:26;7.00;86.40
16267;DHT22;8241;48.786;9.250;2023-03-07T17:12:53;7.00;86.30
16267;DHT22;8241;48.786;9.250;2023-03-07T17:15:23;6.90;86.60
16267;DHT22;8241;48.786;9.250;2023-03-07T17:17:54;6.90;86.60
16267;DHT22;8241;48.786;9.250;2023-03-07T17:20:22;6.80;86.90
16267;DHT22;8241;48.786;9.250;2023-03-07T17:22:51;6.80;87.30
16267;DHT22;8241;48.786;9.250;2023-03-07T17:25:21;6.80;87.00
16267;DHT22;8241;48.786;9.250;2023-03-07T17:27:49;6.80;86.80
16267;DHT22;8241;48.786;9.250;2023-03-07T17:30:18;6.70;86.90
16267;DHT22;8241;48.786;9.250;2023-03-07T17:32:48;6.70;87.20
16267;DHT22;8241;48.786;9.250;2023-03-07T17:35:15;6.70;87.40
16267;DHT22;8241;48.786;9.250;2023-03-07T17:37:43;6.70;87.60
16267;DHT22;8241;48.786;9.250;2023-03-07T17:40:11;6.70;87.00
16267;DHT22;8241;48.786;9.250;2023-03-07T17:42:38;6.70;87.80
16267;DHT22;8241;48.786;9.250;2023-03-07T17:45:06;6.70;87.90
16267;DHT22;8241;48.786;9.250;2023-03-07T17:47:35;6.60;87.50
16267;DHT22;8241;48.786;9.250;2023-03-07T17:50:11;6.60;87.90
16267;DHT22;8241;48.786;9.250;2023-03-07T17:52:48;6.80;87.10
16267;DHT22;8241;48.786;9.250;2023-03-07T17:55:16;6.70;87.00
16267;DHT22;8241;48.786;9.250;2023-03-07T17:57:44;6.60;87.20
16267;DHT22;8241;48.786;9.250;2023-03-07T18:00:12;6.50;87.30
16267;DHT22;8241;48.786;9.250;2023-03-07T18:02:39;6.50;87.50
16267;DHT22;8241;48.786;9.250;2023-03-07T18:05:12;6.60;87.00
16267;DHT22;8241;48.786;9.250;2023-03-07T18:07:39;6.60;87.20
16267;DHT22;8241;48.786;9.250;2023-03-07T18:10:10;6.50;87.30
16267;DHT22;8241;48.786;9.250;2023-03-07T18:12:41;6.60;86.90
16267;DHT22;8241;48.786;9.250;2023-03-07T18:15:12;6.50;86.90
16267;DHT22;8241;48.786;9.250;2023-03-07T18:17:39;6.50;87.30
16267;DHT22;8241;48.786;9.250;2023-03-07T18:20:07;6.50;87.50
16267;DHT22;8241;48.786;9.250;2023-03-07T18:22:40;6.50;87.40
16267;DHT22;8241;48.786;9.250;2023-03-07T18:25:11;6.60;87.00
16267;DHT22;8241;48.786;9.250;2023-03-07T18:27:39;6.50;86.60
16267;DHT22;8241;48.786;9.250;2023-03-07T18:30:09;6.40;87.00
16267;DHT22;8241;48.786;9.250;2023-03-07T18:32:39;6.30;87.20
16267;DHT22;8241;48.786;9.250;2023-03-07T18:35:17;6.40;87.20
16267;DHT22;8241;48.786;9.250;2023-03-07T18:37:46;6.30;87.70
16267;DHT22;8241;48.786;9.250;2023-03-07T18:40:13;6.30;87.70
16267;DHT22;8241;48.786;9.250;2023-03-07T18:42:40;6.30;87.90
16267;DHT22;8241;48.786;9.250;2023-03-07T18:45:09;6.20;88.00
16267;DHT22;8241;48.786;9.250;2023-03-07T18:47:36;6.20;88.00
16267;DHT22;8241;48.786;9.250;2023-03-07T18:50:03;6.20;88.10
16267;DHT22;8241;48.786;9.250;2023-03-07T18:52:33;6.20;88.00
16267;DHT22;8241;48.786;9.250;2023-03-07T18:55:06;6.20;88.40
16267;DHT22;8241;48.786;9.250;2023-03-07T18:57:34;6.20;88.20
16267;DHT22;8241;48.786;9.250;2023-03-07T19:00:01;6.20;88.50
16267;DHT22;8241;48.786;9.250;2023-03-07T19:02:29;6.20;88.40
16267;DHT22;8241;48.786;9.250;2023-03-07T19:05:07;6.20;88.40
16267;DHT22;8241;48.786;9.250;2023-03-07T19:07:35;6.20;88.40
16267;DHT22;8241;48.786;9.250;2023-03-07T19:10:02;6.20;88.30
16267;DHT22;8241;48.786;9.250;2023-03-07T19:12:31;6.20;89.00
16267;DHT22;8241;48.786;9.250;2023-03-07T19:14:57;6.20;89.00
16267;DHT22;8241;48.786;9.250;2023-03-07T19:17:24;6.20;88.40
16267;DHT22;8241;48.786;9.250;2023-03-07T19:19:52;6.30;88.00
16267;DHT22;8241;48.786;9.250;2023-03-07T19:22:23;6.40;87.90
16267;DHT22;8241;48.786;9.250;2023-03-07T19:24:50;6.30;88.10
16267;DHT22;8241;48.786;9.250;2023-03-07T19:27:19;6.30;88.00
16267;DHT22;8241;48.786;9.250;2023-03-07T19:29:55;6.30;88.10
16267;DHT22;8241;48.786;9.250;2023-03-07T19:32:29;6.20;88.30
16267;DHT22;8241;48.786;9.250;2023-03-07T19:34:56;6.20;88.50
16267;DHT22;8241;48.786;9.250;2023-03-07T19:37:34;6.20;89.00
16267;DHT22;8241;48.786;9.250;2023-03-07T19:40:06;6.20;88.80
16267;DHT22;8241;48.786;9.250;2023-03-07T19:42:34;6.20;88.80
16267;DHT22;8241;48.786;9.250;2023-03-07T19:45:07;6.30;88.80